Time;durP1;ratioP1;P1;durP2;ratioP2;P2;SDS_P1;SDS_P2;PMS_P1;PMS_P2;Temp;Humidity;BMP_temperature;BMP_pressure;BME280_temperature;BME280_humidity;BME280_pressure;Samples;Min_cycle;Max_cycle;Signal;HPM_P1;HPM_P2
2021/06/17 00:01:28;;;;;;;8.48;7.32;;;23.70;99.90;;;;;;5029775;28;20211;-71
2021/06/17 00:03:55;;;;;;;9.88;7.82;;;23.70;99.90;;;;;;5030483;28;20245;-71
2021/06/17 00:06:22;;;;;;;13.77;7.70;;;23.60;99.90;;;;;;5030012;28;20211;-73
2021/06/17 00:08:49;;;;;;;7.72;7.05;;;23.50;99.90;;;;;;5030844;28;20199;-72
2021/06/17 00:11:16;;;;;;;8.77;7.82;;;23.60;99.90;;;;;;5030696;28;20253;-72
2021/06/17 00:13:43;;;;;;;8.60;7.78;;;23.50;99.90;;;;;;5029858;28;20216;-72
2021/06/17 00:16:10;;;;;;;8.50;7.70;;;23.60;99.90;;;;;;5030600;28;20281;-73
2021/06/17 00:18:39;;;;;;;8.70;7.80;;;23.50;99.90;;;;;;5029683;28;20207;-72
2021/06/17 00:21:07;;;;;;;8.52;7.72;;;23.50;99.90;;;;;;5030558;28;20657;-72
2021/06/17 00:23:35;;;;;;;8.25;7.55;;;23.50;99.90;;;;;;5029774;28;20277;-72
2021/06/17 00:26:03;;;;;;;8.15;7.53;;;23.60;99.90;;;;;;5030229;28;20334;-72
2021/06/17 00:28:31;;;;;;;9.55;7.93;;;23.50;99.90;;;;;;5029437;28;20214;-72
2021/06/17 00:30:59;;;;;;;10.40;8.45;;;23.50;99.90;;;;;;5030561;28;20262;-72
2021/06/17 00:33:26;;;;;;;7.93;7.13;;;23.50;99.90;;;;;;5030077;28;20211;-72
2021/06/17 00:35:54;;;;;;;8.68;7.97;;;23.50;99.90;;;;;;5030148;28;20211;-72
2021/06/17 00:38:22;;;;;;;8.02;7.22;;;23.50;99.90;;;;;;5030345;28;20207;-72
2021/06/17 00:40:51;;;;;;;9.75;8.65;;;23.70;99.90;;;;;;5030109;28;20231;-71
2021/06/17 00:43:18;;;;;;;8.68;7.72;;;23.60;99.90;;;;;;5030397;28;20242;-71
2021/06/17 00:45:47;;;;;;;8.55;7.72;;;23.60;99.90;;;;;;5030141;28;20203;-71
2021/06/17 00:48:16;;;;;;;8.05;7.18;;;23.70;99.90;;;;;;5030262;28;20215;-72
2021/06/17 00:50:45;;;;;;;8.07;6.82;;;23.70;99.90;;;;;;5032587;28;20269;-71
2021/06/17 00:53:14;;;;;;;8.82;8.02;;;23.70;99.90;;;;;;5033702;28;20579;-71
2021/06/17 00:55:43;;;;;;;7.95;7.25;;;23.80;99.90;;;;;;5033488;28;20204;-71
2021/06/17 00:58:11;;;;;;;7.78;6.85;;;23.70;99.90;;;;;;5033469;28;20231;-72
2021/06/17 01:00:38;;;;;;;8.40;7.18;;;23.70;99.90;;;;;;5033326;28;20671;-72
2021/06/17 01:03:06;;;;;;;8.00;7.30;;;23.70;99.90;;;;;;5033616;28;20289;-72
2021/06/17 01:05:33;;;;;;;12.05;7.93;;;23.60;99.90;;;;;;5033241;28;20208;-70
2021/06/17 01:08:17;;;;;;;8.43;7.47;;;23.60;99.90;;;;;;5033083;28;20265;-72
2021/06/17 01:10:52;;;;;;;8.38;6.93;;;23.60;99.90;;;;;;5033053;28;20624;-71
2021/06/17 01:13:23;;;;;;;8.35;7.65;;;23.60;99.90;;;;;;5033764;28;20229;-70
2021/06/17 01:15:56;;;;;;;7.15;6.47;;;23.60;99.90;;;;;;5031735;28;20203;-70
2021/06/17 01:18:25;;;;;;;8.68;7.43;;;23.60;99.90;;;;;;5032906;28;20582;-71
2021/06/17 01:20:55;;;;;;;7.32;6.60;;;23.60;99.90;;;;;;5033056;28;20214;-71
2021/06/17 01:23:49;;;;;;;10.73;6.70;;;23.70;99.90;;;;;;5032956;28;20643;-71
2021/06/17 01:26:23;;;;;;;7.88;6.28;;;23.50;99.90;;;;;;5033572;28;20772;-70
2021/06/17 01:28:55;;;;;;;10.35;6.95;;;23.40;99.90;;;;;;5032808;28;20260;-70
2021/06/17 01:31:26;;;;;;;11.82;7.25;;;23.40;99.90;;;;;;5033081;28;20257;-70
2021/06/17 01:33:55;;;;;;;7.38;6.68;;;23.40;99.90;;;;;;5032899;28;20211;-70
2021/06/17 01:36:26;;;;;;;8.55;6.90;;;23.30;99.90;;;;;;5032746;28;20207;-70
2021/06/17 01:38:55;;;;;;;14.07;7.43;;;23.40;99.90;;;;;;5032664;28;20744;-70
2021/06/17 01:41:25;;;;;;;7.78;7.07;;;23.40;99.90;;;;;;5032424;28;20208;-70
2021/06/17 01:43:55;;;;;;;10.18;7.25;;;23.50;99.90;;;;;;5032884;28;20289;-71
2021/06/17 01:46:22;;;;;;;8.85;7.18;;;23.60;99.90;;;;;;5032759;28;20744;-70
2021/06/17 01:48:52;;;;;;;8.05;6.55;;;23.50;99.90;;;;;;5033392;28;20265;-71
2021/06/17 01:51:20;;;;;;;9.90;6.45;;;23.70;99.90;;;;;;5019156;28;20261;-71
2021/06/17 01:53:49;;;;;;;8.73;6.38;;;23.80;99.90;;;;;;5033065;28;20211;-71
2021/06/17 01:56:18;;;;;;;11.20;6.55;;;23.70;99.90;;;;;;5032890;28;20295;-70
2021/06/17 01:58:46;;;;;;;11.48;6.07;;;23.70;99.90;;;;;;5032803;28;20211;-70
2021/06/17 02:01:15;;;;;;;7.07;5.75;;;23.60;99.90;;;;;;5031423;28;20199;-70
2021/06/17 02:03:45;;;;;;;10.32;6.70;;;23.60;99.90;;;;;;5031942;28;20601;-71
2021/06/17 02:06:14;;;;;;;11.55;6.35;;;23.60;99.90;;;;;;5031942;28;20253;-71
2021/06/17 02:08:44;;;;;;;7.07;5.10;;;23.50;99.90;;;;;;5032291;28;20212;-71
2021/06/17 02:11:12;;;;;;;12.20;6.20;;;23.50;99.90;;;;;;5032652;28;20258;-71
2021/06/17 02:13:40;;;;;;;7.68;6.85;;;23.60;99.90;;;;;;5032204;28;20273;-70
2021/06/17 02:16:07;;;;;;;11.05;7.00;;;23.70;99.90;;;;;;5032107;28;20246;-72
2021/06/17 02:18:37;;;;;;;8.95;6.07;;;23.60;99.90;;;;;;5032036;28;20211;-72
2021/06/17 02:21:06;;;;;;;13.15;5.90;;;23.60;99.90;;;;;;5032173;28;20708;-72
2021/06/17 02:23:34;;;;;;;7.22;6.65;;;23.50;99.90;;;;;;5031544;28;20277;-71
2021/06/17 02:26:03;;;;;;;6.78;6.07;;;23.60;99.90;;;;;;5032107;28;20215;-70
2021/06/17 02:28:33;;;;;;;12.52;6.38;;;23.60;99.90;;;;;;5031372;28;20206;-71
2021/06/17 02:31:13;;;;;;;8.00;6.65;;;23.60;99.90;;;;;;5032242;28;20257;-71
2021/06/17 02:33:42;;;;;;;8.10;6.43;;;23.50;99.90;;;;;;5031297;28;20679;-71
2021/06/17 02:36:13;;;;;;;6.63;5.93;;;23.50;99.90;;;;;;5031802;28;20675;-71
2021/06/17 02:38:42;;;;;;;7.43;5.45;;;23.50;99.90;;;;;;5031185;28;20701;-71
2021/06/17 02:41:13;;;;;;;7.45;4.18;;;23.50;99.90;;;;;;5031907;28;20199;-71
2021/06/17 02:43:45;;;;;;;7.22;3.95;;;23.50;99.90;;;;;;5031326;28;20232;-71
2021/06/17 02:46:13;;;;;;;8.35;3.97;;;23.30;99.90;;;;;;5031931;28;20281;-71
2021/06/17 02:48:41;;;;;;;8.15;4.35;;;23.30;99.90;;;;;;5031299;28;20262;-70
2021/06/17 02:51:09;;;;;;;7.68;4.28;;;23.30;99.90;;;;;;5031758;28;20203;-71
2021/06/17 02:53:36;;;;;;;8.38;3.92;;;23.30;99.90;;;;;;5031391;28;20211;-71
2021/06/17 02:56:11;;;;;;;8.77;4.38;;;23.30;99.90;;;;;;5031558;28;20207;-71
2021/06/17 02:58:53;;;;;;;7.10;4.75;;;23.20;99.90;;;;;;5031035;28;20211;-71
2021/06/17 03:01:27;;;;;;;9.13;4.35;;;23.20;99.90;;;;;;5031752;28;20264;-71
2021/06/17 03:03:58;;;;;;;7.43;3.78;;;23.20;99.90;;;;;;5031002;28;20618;-71
2021/06/17 03:06:28;;;;;;;4.55;4.00;;;23.20;99.90;;;;;;5031016;28;20671;-71
2021/06/17 03:08:57;;;;;;;6.75;4.22;;;23.30;99.90;;;;;;5031220;28;20208;-72
2021/06/17 03:11:26;;;;;;;7.00;3.88;;;23.20;99.90;;;;;;5030979;28;20300;-71
2021/06/17 03:13:57;;;;;;;6.60;3.83;;;23.10;99.90;;;;;;5031086;28;20204;-71
2021/06/17 03:16:28;;;;;;;10.30;3.95;;;23.20;99.90;;;;;;5030649;28;20253;-71
2021/06/17 03:18:59;;;;;;;9.25;4.07;;;23.20;99.90;;;;;;5030922;28;20208;-71
2021/06/17 03:21:30;;;;;;;8.10;3.85;;;23.20;99.90;;;;;;5030451;28;20269;-71
2021/06/17 03:23:58;;;;;;;7.82;3.50;;;23.00;99.90;;;;;;5030805;28;20215;-71
2021/06/17 03:26:27;;;;;;;3.72;2.78;;;23.00;99.90;;;;;;5030891;28;20301;-71
2021/06/17 03:28:56;;;;;;;5.60;3.35;;;22.90;99.90;;;;;;5030890;28;20679;-71
2021/06/17 03:31:24;;;;;;;8.32;3.28;;;22.90;99.90;;;;;;5030769;28;20234;-71
2021/06/17 03:33:53;;;;;;;4.43;2.80;;;22.80;99.90;;;;;;5030542;28;20237;-71
2021/06/17 03:36:23;;;;;;;5.20;3.08;;;22.70;99.90;;;;;;5031211;28;20203;-71
2021/06/17 03:38:51;;;;;;;7.18;3.65;;;22.70;99.90;;;;;;5030981;28;20200;-70
2021/06/17 03:41:18;;;;;;;6.97;3.65;;;22.70;99.90;;;;;;5030952;28;20725;-70
2021/06/17 03:43:47;;;;;;;6.63;3.33;;;22.60;99.90;;;;;;5030547;28;20234;-70
2021/06/17 03:46:15;;;;;;;4.13;3.13;;;22.60;99.90;;;;;;5030486;28;20575;-70
2021/06/17 03:48:43;;;;;;;6.85;3.40;;;22.60;99.90;;;;;;5030074;28;20227;-70
2021/06/17 03:51:12;;;;;;;9.00;4.18;;;22.70;99.90;;;;;;5030938;28;20203;-70
2021/06/17 03:53:42;;;;;;;7.22;4.05;;;22.80;99.90;;;;;;5030332;28;20207;-70
2021/06/17 03:56:09;;;;;;;11.57;4.13;;;22.70;99.90;;;;;;5017573;28;20200;-70
2021/06/17 03:58:37;;;;;;;4.72;3.60;;;22.60;99.90;;;;;;5030291;28;20215;-71
2021/06/17 04:01:06;;;;;;;7.65;2.97;;;22.50;99.90;;;;;;5030455;28;20261;-73
2021/06/17 04:03:34;;;;;;;8.80;3.83;;;22.40;99.90;;;;;;5029859;28;20329;-73
2021/06/17 04:06:02;;;;;;;5.53;3.88;;;22.40;99.90;;;;;;5030243;28;20203;-73
2021/06/17 04:08:31;;;;;;;7.13;3.33;;;22.30;99.90;;;;;;5030315;28;20253;-72
2021/06/17 04:11:02;;;;;;;7.45;3.22;;;22.30;99.90;;;;;;5030286;28;20211;-72
2021/06/17 04:13:33;;;;;;;6.30;3.25;;;22.30;99.90;;;;;;5030032;28;20204;-73
2021/06/17 04:16:01;;;;;;;9.70;4.00;;;22.30;99.90;;;;;;5030058;28;20207;-72
2021/06/17 04:18:30;;;;;;;4.80;3.17;;;22.40;99.90;;;;;;5029957;28;20212;-73
2021/06/17 04:21:00;;;;;;;11.65;3.70;;;22.50;99.90;;;;;;5030123;28;20215;-72
2021/06/17 04:23:28;;;;;;;7.75;3.22;;;22.50;99.90;;;;;;5029995;28;20339;-72
2021/06/17 04:25:57;;;;;;;9.52;3.80;;;22.40;99.90;;;;;;5033809;28;20238;-72
2021/06/17 04:28:30;;;;;;;6.25;3.78;;;22.50;99.90;;;;;;5033594;28;20211;-72
2021/06/17 04:30:58;;;;;;;6.07;3.60;;;22.50;99.90;;;;;;5034033;28;20207;-72
2021/06/17 04:33:26;;;;;;;5.53;2.97;;;22.60;99.90;;;;;;5033628;28;20207;-70
2021/06/17 04:35:58;;;;;;;6.32;3.42;;;22.50;99.90;;;;;;5034440;28;20257;-71
2021/06/17 04:38:26;;;;;;;7.50;3.53;;;22.40;99.90;;;;;;5033671;28;20211;-71
2021/06/17 04:40:54;;;;;;;9.07;4.53;;;22.40;99.90;;;;;;5034276;28;20208;-70
2021/06/17 04:43:22;;;;;;;7.78;3.72;;;22.30;99.90;;;;;;5033940;28;20227;-70
2021/06/17 04:45:53;;;;;;;7.25;3.22;;;22.40;99.90;;;;;;5033964;28;20239;-71
2021/06/17 04:48:23;;;;;;;10.18;4.38;;;22.40;99.90;;;;;;5033907;28;20671;-71
2021/06/17 04:50:50;;;;;;;8.48;3.20;;;22.30;99.90;;;;;;5033820;28;20208;-72
2021/06/17 04:53:18;;;;;;;7.03;4.10;;;22.30;99.90;;;;;;5033709;28;20211;-72
2021/06/17 04:55:48;;;;;;;8.45;4.22;;;22.30;99.90;;;;;;5033468;28;20667;-72
2021/06/17 04:58:16;;;;;;;10.00;3.97;;;22.30;99.90;;;;;;5033804;28;20213;-72
2021/06/17 05:00:43;;;;;;;6.65;3.50;;;22.30;99.90;;;;;;5032645;28;20679;-72
2021/06/17 05:03:11;;;;;;;5.25;4.20;;;22.40;99.90;;;;;;5033627;28;20726;-72
2021/06/17 05:05:38;;;;;;;6.50;3.17;;;22.50;99.90;;;;;;5033077;28;20682;-72
2021/06/17 05:10:52;;;;;;;5.05;2.92;;;22.70;99.90;;;;;;5033406;28;20209;-73
2021/06/17 05:13:22;;;;;;;9.93;5.63;;;22.70;99.90;;;;;;5033982;28;20281;-73
2021/06/17 05:15:50;;;;;;;8.55;4.32;;;22.70;99.90;;;;;;5033106;28;20239;-72
2021/06/17 05:18:18;;;;;;;13.27;4.47;;;22.70;99.90;;;;;;5033764;28;20683;-72
2021/06/17 05:20:47;;;;;;;8.00;3.50;;;22.60;99.90;;;;;;5029983;28;20208;-71
2021/06/17 05:23:19;;;;;;;7.13;3.15;;;22.50;99.90;;;;;;5033078;28;20214;-71
2021/06/17 05:25:46;;;;;;;6.47;3.67;;;22.50;99.90;;;;;;5033219;28;20207;-71
2021/06/17 05:28:15;;;;;;;10.35;3.17;;;22.40;99.90;;;;;;5032835;28;20211;-71
2021/06/17 05:30:43;;;;;;;11.00;3.72;;;22.50;99.90;;;;;;5032519;28;20713;-71
2021/06/17 05:33:10;;;;;;;7.80;3.85;;;22.60;99.90;;;;;;5033072;28;21062;-71
2021/06/17 05:35:39;;;;;;;11.05;4.32;;;22.60;99.90;;;;;;5032648;28;20207;-71
2021/06/17 05:38:06;;;;;;;11.98;4.60;;;22.60;99.90;;;;;;5033471;28;20203;-71
2021/06/17 05:40:33;;;;;;;6.43;3.35;;;22.60;99.90;;;;;;5032607;28;20203;-71
2021/06/17 05:43:00;;;;;;;8.98;4.22;;;22.60;99.90;;;;;;5032517;28;20742;-71
2021/06/17 05:45:27;;;;;;;13.30;3.95;;;22.70;99.90;;;;;;5032215;28;20812;-71
2021/06/17 05:47:54;;;;;;;10.95;4.43;;;22.60;99.90;;;;;;5033193;28;20208;-70
2021/06/17 05:50:21;;;;;;;9.85;3.88;;;22.50;99.90;;;;;;5032699;28;20671;-70
2021/06/17 05:52:49;;;;;;;8.75;4.53;;;22.40;99.90;;;;;;5033343;28;20200;-72
2021/06/17 05:55:16;;;;;;;8.85;3.90;;;22.50;99.90;;;;;;5033200;28;20254;-72
2021/06/17 05:57:43;;;;;;;4.82;3.25;;;22.40;99.90;;;;;;5031816;28;20230;-72
2021/06/17 06:00:11;;;;;;;10.85;4.18;;;22.50;99.90;;;;;;5032577;28;21044;-72
2021/06/17 06:02:39;;;;;;;14.70;5.00;;;22.60;99.90;;;;;;5032333;28;20200;-72
2021/06/17 06:05:06;;;;;;;6.32;3.97;;;22.60;99.90;;;;;;5032830;28;20651;-72
2021/06/17 06:07:33;;;;;;;7.47;4.53;;;22.50;99.90;;;;;;5032221;28;20211;-72
2021/06/17 06:10:03;;;;;;;4.18;3.25;;;22.60;99.90;;;;;;5032284;28;20261;-72
2021/06/17 06:12:30;;;;;;;7.90;4.93;;;22.60;99.90;;;;;;5031664;28;20714;-73
2021/06/17 06:14:57;;;;;;;8.63;4.03;;;22.50;99.90;;;;;;5032260;28;20709;-72
2021/06/17 06:17:24;;;;;;;15.60;4.90;;;22.50;99.90;;;;;;5032227;28;20207;-72
2021/06/17 06:19:51;;;;;;;15.32;4.88;;;22.60;99.90;;;;;;5032284;28;20261;-73
2021/06/17 06:22:18;;;;;;;31.58;7.22;;;22.60;99.90;;;;;;5032397;28;20219;-72
2021/06/17 06:24:45;;;;;;;13.32;4.97;;;22.60;99.90;;;;;;5031684;28;20239;-72
2021/06/17 06:27:14;;;;;;;9.27;4.50;;;22.60;99.90;;;;;;5032165;28;20230;-73
2021/06/17 06:29:41;;;;;;;7.53;4.15;;;22.50;99.90;;;;;;5031881;28;20298;-72
2021/06/17 06:32:09;;;;;;;5.65;5.00;;;22.50;99.90;;;;;;5032090;28;20231;-72
2021/06/17 06:34:37;;;;;;;13.45;6.07;;;22.50;99.90;;;;;;5031695;28;20215;-72
2021/06/17 06:37:04;;;;;;;9.18;5.95;;;22.50;99.90;;;;;;5031925;28;20253;-72
2021/06/17 06:39:32;;;;;;;9.02;7.32;;;22.50;99.90;;;;;;5031892;28;20203;-73
2021/06/17 06:41:59;;;;;;;17.08;10.52;;;22.50;99.90;;;;;;5031248;28;20207;-73
2021/06/17 06:44:28;;;;;;;13.25;9.05;;;22.60;99.90;;;;;;5031354;28;20231;-74
2021/06/17 06:46:56;;;;;;;12.38;7.38;;;22.70;99.90;;;;;;5030065;28;20729;-71
2021/06/17 06:49:23;;;;;;;11.07;5.65;;;22.60;99.90;;;;;;5030782;28;20215;-73
2021/06/17 06:51:50;;;;;;;10.75;6.32;;;22.60;99.90;;;;;;5032124;28;20207;-75
2021/06/17 06:54:18;;;;;;;7.97;7.18;;;22.60;99.90;;;;;;5031176;28;20637;-73
2021/06/17 06:56:46;;;;;;;8.13;6.43;;;22.50;99.90;;;;;;5025090;28;20214;-75
2021/06/17 06:59:14;;;;;;;10.40;8.20;;;22.60;99.90;;;;;;5030774;28;20238;-75
2021/06/17 07:01:42;;;;;;;8.55;7.78;;;22.70;99.90;;;;;;5026236;28;20211;-75
2021/06/17 07:04:09;;;;;;;8.25;7.20;;;22.70;99.90;;;;;;5031108;28;20251;-75
2021/06/17 07:06:38;;;;;;;6.32;5.72;;;22.70;99.90;;;;;;5031058;28;20207;-75
2021/06/17 07:09:05;;;;;;;8.57;6.68;;;22.70;99.90;;;;;;5031161;28;20214;-74
2021/06/17 07:11:32;;;;;;;48.45;8.85;;;22.70;99.90;;;;;;5030602;28;20748;-72
2021/06/17 07:14:00;;;;;;;11.55;9.70;;;22.70;99.90;;;;;;5031524;28;20207;-72
2021/06/17 07:16:27;;;;;;;7.63;6.88;;;22.80;99.90;;;;;;5030750;28;20230;-73
2021/06/17 07:18:55;;;;;;;7.72;7.10;;;23.00;99.90;;;;;;5031228;28;20207;-74
2021/06/17 07:21:23;;;;;;;9.27;7.50;;;23.00;99.90;;;;;;5024063;28;20269;-74
2021/06/17 07:23:51;;;;;;;8.18;7.47;;;23.10;99.90;;;;;;5029179;28;20204;-74
2021/06/17 07:26:21;;;;;;;7.60;6.75;;;23.20;99.90;;;;;;5028477;28;20207;-73
2021/06/17 07:28:48;;;;;;;7.53;6.13;;;23.20;99.90;;;;;;5025917;28;20204;-72
2021/06/17 07:31:15;;;;;;;8.27;7.28;;;23.20;99.90;;;;;;5029765;28;20215;-73
2021/06/17 07:33:42;;;;;;;12.40;8.05;;;23.20;99.90;;;;;;5030227;28;20748;-72
2021/06/17 07:36:12;;;;;;;7.40;6.55;;;23.20;99.90;;;;;;5030756;28;20607;-73
2021/06/17 07:38:40;;;;;;;6.43;5.93;;;23.20;99.90;;;;;;5026355;28;20286;-71
2021/06/17 07:41:07;;;;;;;8.57;7.22;;;23.30;99.90;;;;;;5030188;28;20218;-71
2021/06/17 07:43:34;;;;;;;7.22;6.63;;;23.30;99.90;;;;;;5022525;28;20281;-72
2021/06/17 07:46:02;;;;;;;6.40;5.90;;;23.30;99.90;;;;;;5030448;28;20285;-73
2021/06/17 07:48:29;;;;;;;7.32;5.72;;;23.30;99.90;;;;;;5027779;28;20211;-71
2021/06/17 07:50:56;;;;;;;7.10;5.45;;;23.20;99.90;;;;;;5029384;28;20208;-71
2021/06/17 07:53:24;;;;;;;6.35;5.75;;;23.30;99.90;;;;;;5029354;28;20208;-70
2021/06/17 07:55:51;;;;;;;7.07;6.32;;;23.30;99.90;;;;;;5025656;28;20306;-71
2021/06/17 07:58:18;;;;;;;7.82;7.15;;;23.40;99.90;;;;;;5023424;28;20207;-70
2021/06/17 08:00:45;;;;;;;8.55;7.72;;;23.40;99.90;;;;;;5024360;28;20298;-70
2021/06/17 08:03:13;;;;;;;7.65;5.40;;;23.50;99.90;;;;;;5030551;28;20207;-70
2021/06/17 08:05:40;;;;;;;6.50;5.85;;;23.40;99.90;;;;;;5029800;28;20652;-72
2021/06/17 08:08:08;;;;;;;8.27;6.80;;;23.40;99.90;;;;;;5030110;28;20203;-70
2021/06/17 08:10:37;;;;;;;7.28;5.78;;;23.50;99.90;;;;;;5029952;28;20260;-71
2021/06/17 08:13:04;;;;;;;11.85;6.82;;;23.70;99.90;;;;;;5030001;28;20200;-73
2021/06/17 08:15:31;;;;;;;8.05;5.90;;;23.70;99.90;;;;;;5030072;28;20620;-70
2021/06/17 08:17:58;;;;;;;8.52;7.75;;;23.70;99.90;;;;;;5030236;28;20211;-72
2021/06/17 08:20:26;;;;;;;8.07;6.85;;;23.70;99.90;;;;;;5030148;28;20213;-70
2021/06/17 08:22:53;;;;;;;8.52;6.22;;;23.80;99.90;;;;;;5029864;28;20215;-73
2021/06/17 08:25:20;;;;;;;10.70;7.47;;;23.80;99.90;;;;;;5030371;28;20235;-70
2021/06/17 08:27:48;;;;;;;7.43;6.40;;;23.80;99.90;;;;;;5031007;28;20207;-73
2021/06/17 08:30:18;;;;;;;8.68;7.60;;;23.70;99.90;;;;;;5030323;28;20207;-69
2021/06/17 08:32:45;;;;;;;6.70;5.65;;;23.70;99.90;;;;;;5029899;28;20211;-70
2021/06/17 08:35:13;;;;;;;6.95;5.72;;;23.80;99.90;;;;;;5030344;28;20208;-72
2021/06/17 08:37:41;;;;;;;7.18;6.45;;;23.80;99.90;;;;;;5029650;28;20701;-72
2021/06/17 08:40:09;;;;;;;7.20;6.50;;;23.90;99.90;;;;;;5029963;28;20215;-71
2021/06/17 08:42:36;;;;;;;22.00;6.97;;;24.00;99.90;;;;;;5030169;28;20203;-72
2021/06/17 08:45:09;;;;;;;9.30;5.55;;;23.90;99.90;;;;;;5030323;28;20317;-70
2021/06/17 08:47:37;;;;;;;7.13;6.03;;;24.00;99.90;;;;;;5016383;28;20204;-71
2021/06/17 08:50:07;;;;;;;10.05;7.13;;;24.00;99.90;;;;;;5029996;28;20584;-70
2021/06/17 08:52:36;;;;;;;8.68;6.97;;;24.10;99.90;;;;;;5029233;28;20617;-71
2021/06/17 08:55:15;;;;;;;8.50;6.82;;;24.10;99.90;;;;;;5030327;28;20216;-71
2021/06/17 08:57:43;;;;;;;8.43;6.53;;;24.20;99.90;;;;;;5029376;28;20640;-71
2021/06/17 09:00:46;;;;;;;18.85;7.30;;;24.20;99.90;;;;;;5029962;28;20992;-71
2021/06/17 09:03:16;;;;;;;7.20;6.50;;;24.30;99.90;;;;;;4969142;28;20293;-71
2021/06/17 09:05:44;;;;;;;6.78;6.10;;;24.50;99.90;;;;;;4968633;28;20248;-72
2021/06/17 09:08:14;;;;;;;9.32;6.43;;;24.60;99.90;;;;;;4998552;28;20215;-71
2021/06/17 09:10:42;;;;;;;5.85;5.30;;;24.50;99.90;;;;;;5030784;28;20218;-71
2021/06/17 09:13:12;;;;;;;5.75;5.15;;;24.50;99.90;;;;;;5033512;28;20207;-71
2021/06/17 09:15:42;;;;;;;9.73;6.07;;;24.40;99.90;;;;;;5033390;28;20238;-72
2021/06/17 09:18:16;;;;;;;12.80;7.45;;;24.30;99.90;;;;;;5033338;28;20265;-73
2021/06/17 09:20:52;;;;;;;9.75;7.00;;;24.20;99.90;;;;;;5032872;28;20210;-71
2021/06/17 09:23:38;;;;;;;9.20;6.53;;;24.20;99.90;;;;;;5033518;28;20214;-71
2021/06/17 09:26:08;;;;;;;7.28;6.32;;;24.30;99.90;;;;;;5033178;28;20231;-71
2021/06/17 09:28:51;;;;;;;7.38;6.28;;;24.20;99.90;;;;;;5032904;28;20200;-72
2021/06/17 09:31:20;;;;;;;8.07;6.20;;;24.20;99.90;;;;;;5029039;28;20221;-70
2021/06/17 09:33:50;;;;;;;9.93;6.82;;;24.10;99.90;;;;;;5033139;28;20287;-71
2021/06/17 09:36:20;;;;;;;6.07;5.57;;;24.20;99.90;;;;;;5033094;28;20219;-71
2021/06/17 09:38:49;;;;;;;12.65;6.93;;;24.20;99.90;;;;;;5032877;28;20207;-71
2021/06/17 09:41:37;;;;;;;11.73;8.43;;;24.30;99.90;;;;;;5033559;28;20208;-71
2021/06/17 09:44:06;;;;;;;8.40;5.90;;;24.30;99.90;;;;;;5032587;28;20195;-72
2021/06/17 09:46:33;;;;;;;11.48;7.38;;;23.80;99.90;;;;;;5032556;28;20267;-72
2021/06/17 09:49:07;;;;;;;8.07;7.35;;;24.10;99.90;;;;;;5032706;28;20219;-72
2021/06/17 09:51:37;;;;;;;9.75;6.15;;;23.60;99.90;;;;;;5032509;28;20214;-72
2021/06/17 09:54:29;;;;;;;9.35;8.45;;;22.70;99.90;;;;;;5032712;28;20234;-72
2021/06/17 09:56:59;;;;;;;9.48;8.52;;;22.70;99.90;;;;;;5031403;28;20211;-72
2021/06/17 09:59:35;;;;;;;8.48;7.65;;;23.20;99.90;;;;;;5032129;28;20235;-73
2021/06/17 10:02:02;;;;;;;8.48;7.63;;;23.10;99.90;;;;;;5032752;28;20302;-73
2021/06/17 10:04:31;;;;;;;8.10;7.05;;;23.50;99.90;;;;;;5031589;28;20694;-73
2021/06/17 10:06:58;;;;;;;8.05;5.55;;;23.60;99.90;;;;;;5032548;28;20235;-73
2021/06/17 10:09:26;;;;;;;5.97;5.43;;;23.10;99.90;;;;;;5031781;28;20274;-70
2021/06/17 10:11:53;;;;;;;10.35;6.57;;;23.30;99.90;;;;;;5032655;28;20200;-72
2021/06/17 10:14:21;;;;;;;6.18;5.10;;;23.70;99.90;;;;;;5032452;28;20212;-72
2021/06/17 10:16:48;;;;;;;13.25;8.27;;;23.50;99.90;;;;;;5032426;28;20219;-72
2021/06/17 10:19:18;;;;;;;8.48;6.05;;;23.50;99.90;;;;;;5032042;28;20215;-72
2021/06/17 10:21:48;;;;;;;10.48;6.18;;;23.30;99.90;;;;;;5031235;28;20217;-72
2021/06/17 10:24:18;;;;;;;10.02;6.85;;;23.60;99.90;;;;;;5031592;28;20215;-72
2021/06/17 10:26:47;;;;;;;8.38;7.60;;;23.40;99.90;;;;;;5031139;28;20235;-72
2021/06/17 10:29:35;;;;;;;6.85;5.78;;;23.40;99.90;;;;;;5024804;28;20254;-72
2021/06/17 10:32:05;;;;;;;7.28;6.68;;;23.20;99.90;;;;;;5031953;28;20204;-72
2021/06/17 10:34:47;;;;;;;6.95;5.45;;;23.00;99.90;;;;;;5028950;28;20212;-75
2021/06/17 10:37:20;;;;;;;7.10;6.07;;;23.20;99.90;;;;;;5030695;28;20207;-75
2021/06/17 10:39:50;;;;;;;8.20;7.40;;;22.80;99.90;;;;;;5032190;28;20222;-74
2021/06/17 10:42:32;;;;;;;9.35;6.32;;;23.40;99.90;;;;;;5031434;28;20211;-74
2021/06/17 10:45:00;;;;;;;7.38;5.35;;;23.00;99.90;;;;;;5031105;28;20207;-74
2021/06/17 10:47:59;;;;;;;10.02;7.53;;;22.80;99.90;;;;;;5030142;28;20215;-78
2021/06/17 10:50:32;;;;;;;11.90;7.53;;;22.80;99.90;;;;;;5005625;28;20294;-78
2021/06/17 10:53:25;;;;;;;7.88;6.90;;;22.90;99.90;;;;;;5027600;28;20243;-83
2021/06/17 10:55:54;;;;;;;12.43;6.63;;;22.60;99.90;;;;;;5033798;28;20203;-75
2021/06/17 10:58:58;;;;;;;8.82;7.03;;;22.60;99.90;;;;;;5039429;28;20253;-78
2021/06/17 11:01:33;;;;;;;8.77;7.88;;;22.40;99.90;;;;;;5016110;28;20218;-86
2021/06/17 11:04:05;;;;;;;11.40;9.15;;;22.20;99.90;;;;;;5031189;28;20211;-74
2021/06/17 11:07:11;;;;;;;9.75;7.78;;;21.50;99.90;;;;;;5026122;28;20228;-80
2021/06/17 11:10:05;;;;;;;16.50;9.52;;;21.50;99.90;;;;;;5029935;28;20207;-79
2021/06/17 11:12:56;;;;;;;13.90;10.05;;;22.90;99.90;;;;;;5026354;28;20208;-81
2021/06/17 11:15:43;;;;;;;10.77;9.77;;;25.30;99.90;;;;;;5030883;28;20222;-71
2021/06/17 11:18:10;;;;;;;13.15;11.60;;;26.40;99.90;;;;;;5031098;28;20294;-75
2021/06/17 11:20:42;;;;;;;14.57;11.00;;;27.40;99.90;;;;;;5030617;28;20207;-73
2021/06/17 11:23:11;;;;;;;14.57;11.30;;;27.50;99.90;;;;;;5030902;28;20250;-71
2021/06/17 11:25:40;;;;;;;12.05;10.82;;;27.40;99.90;;;;;;5029996;28;20233;-77
2021/06/17 11:28:10;;;;;;;12.82;10.75;;;27.00;99.90;;;;;;5029624;28;20210;-74
2021/06/17 11:31:01;;;;;;;13.75;11.23;;;26.60;99.90;;;;;;5027473;28;20211;-80
2021/06/17 11:33:44;;;;;;;11.45;10.45;;;26.50;99.90;;;;;;5027210;28;20277;-74
2021/06/17 11:36:14;;;;;;;11.20;10.10;;;26.90;99.90;;;;;;5030912;28;20216;-71
2021/06/17 11:38:41;;;;;;;12.38;11.18;;;27.50;99.90;;;;;;5030444;28;20258;-76
2021/06/17 11:41:14;;;;;;;11.80;10.60;;;28.30;99.90;;;;;;5030799;28;20234;-70
2021/06/17 11:43:43;;;;;;;12.23;10.30;;;28.30;99.90;;;;;;5027842;28;20648;-76
2021/06/17 11:46:24;;;;;;;15.60;9.70;;;28.20;99.90;;;;;;5026825;28;20646;-78
2021/06/17 11:48:56;;;;;;;11.57;9.50;;;27.80;99.90;;;;;;5030266;28;20243;-80
2021/06/17 11:51:24;;;;;;;10.45;9.38;;;28.10;99.90;;;;;;5029786;28;20683;-75
2021/06/17 11:53:54;;;;;;;10.60;9.63;;;27.50;99.90;;;;;;5030049;28;20674;-76
2021/06/17 11:56:26;;;;;;;13.13;11.73;;;27.70;99.90;;;;;;5030666;28;20617;-73
2021/06/17 11:58:54;;;;;;;11.75;10.43;;;28.20;99.90;;;;;;5029869;28;20207;-76
2021/06/17 12:01:22;;;;;;;11.90;9.40;;;28.50;99.90;;;;;;5034285;28;20253;-74
2021/06/17 12:04:02;;;;;;;10.07;9.10;;;28.90;99.90;;;;;;5024623;28;20253;-72
2021/06/17 12:06:29;;;;;;;9.68;8.90;;;29.70;99.90;;;;;;5031934;28;20237;-72
2021/06/17 12:09:04;;;;;;;9.65;8.60;;;29.50;99.90;;;;;;5030678;28;20230;-72
2021/06/17 12:11:31;;;;;;;12.35;7.63;;;29.40;99.90;;;;;;5024769;28;20218;-73
2021/06/17 12:14:01;;;;;;;9.25;8.43;;;30.30;99.90;;;;;;5025474;28;20208;-72
2021/06/17 12:16:28;;;;;;;28.50;8.00;;;30.10;99.90;;;;;;5028076;28;20836;-72
2021/06/17 12:18:55;;;;;;;8.82;7.00;;;29.80;99.90;;;;;;5027183;28;20276;-76
2021/06/17 12:21:23;;;;;;;9.18;8.38;;;29.30;99.90;;;;;;5026087;28;20247;-72
2021/06/17 12:23:50;;;;;;;9.07;7.90;;;28.70;99.90;;;;;;5027102;28;20286;-74
2021/06/17 12:26:17;;;;;;;11.05;8.43;;;28.70;99.90;;;;;;5026135;28;20231;-74
2021/06/17 12:28:51;;;;;;;5.95;5.30;;;28.40;99.90;;;;;;5029400;28;20670;-74
2021/06/17 12:31:27;;;;;;;9.55;7.30;;;27.80;99.90;;;;;;5030215;28;20261;-74
2021/06/17 12:34:06;;;;;;;10.75;9.63;;;27.30;99.90;;;;;;5033445;28;20334;-77
2021/06/17 12:36:33;;;;;;;12.45;7.78;;;27.40;99.90;;;;;;5025270;28;20289;-73
2021/06/17 12:39:10;;;;;;;7.70;6.75;;;27.20;99.90;;;;;;5025786;28;20211;-71
2021/06/17 12:41:42;;;;;;;8.60;7.70;;;26.70;99.90;;;;;;5028539;28;20210;-73
2021/06/17 12:44:09;;;;;;;7.10;6.07;;;26.90;99.90;;;;;;5028226;28;20235;-72
2021/06/17 12:46:38;;;;;;;7.35;6.70;;;26.10;99.90;;;;;;5031253;28;20235;-73
2021/06/17 12:49:26;;;;;;;7.53;6.82;;;25.40;99.90;;;;;;5032713;28;20218;-72
2021/06/17 12:52:02;;;;;;;7.72;7.13;;;25.50;99.90;;;;;;5030403;28;20230;-72
2021/06/17 12:54:31;;;;;;;9.07;6.85;;;24.30;99.90;;;;;;5033627;28;20219;-71
2021/06/17 12:57:01;;;;;;;7.13;6.53;;;24.50;99.90;;;;;;5034003;28;20239;-71
2021/06/17 12:59:47;;;;;;;13.52;6.90;;;24.20;99.90;;;;;;5033550;28;20211;-72
2021/06/17 13:02:18;;;;;;;7.63;6.90;;;24.70;99.90;;;;;;5032187;28;20207;-71